sensor_id;sensor_type;location;lat;lon;timestamp;P1;durP1;ratioP1;P2;durP2;ratioP2
19593;SDS011;9944;48.240;16.478;2022-10-15T00:00:38;23.52;;;13.07;;
19593;SDS011;9944;48.240;16.478;2022-10-15T00:04:42;22.10;;;12.77;;
19593;SDS011;9944;48.240;16.478;2022-10-15T00:08:46;24.75;;;13.50;;
19593;SDS011;9944;48.240;16.478;2022-10-15T00:12:50;23.75;;;13.98;;
19593;SDS011;9944;48.240;16.478;2022-10-15T00:16:54;26.50;;;14.45;;
19593;SDS011;9944;48.240;16.478;2022-10-15T00:20:57;23.58;;;13.43;;
19593;SDS011;9944;48.240;16.478;2022-10-15T00:25:02;26.40;;;13.63;;
19593;SDS011;9944;48.240;16.478;2022-10-15T00:29:05;20.73;;;12.77;;
19593;SDS011;9944;48.240;16.478;2022-10-15T00:33:08;25.20;;;14.00;;
19593;SDS011;9944;48.240;16.478;2022-10-15T00:37:12;20.13;;;10.77;;
19593;SDS011;9944;48.240;16.478;2022-10-15T00:41:17;23.75;;;13.00;;
19593;SDS011;9944;48.240;16.478;2022-10-15T00:45:22;25.77;;;14.15;;
19593;SDS011;9944;48.240;16.478;2022-10-15T00:49:27;25.25;;;13.32;;
19593;SDS011;9944;48.240;16.478;2022-10-15T00:53:35;26.95;;;15.48;;
19593;SDS011;9944;48.240;16.478;2022-10-15T00:57:41;28.17;;;16.33;;
19593;SDS011;9944;48.240;16.478;2022-10-15T01:01:46;30.40;;;17.10;;
19593;SDS011;9944;48.240;16.478;2022-10-15T01:05:50;30.40;;;16.45;;
19593;SDS011;9944;48.240;16.478;2022-10-15T01:09:55;26.92;;;15.57;;
19593;SDS011;9944;48.240;16.478;2022-10-15T01:14:01;29.90;;;15.68;;
19593;SDS011;9944;48.240;16.478;2022-10-15T01:18:14;27.15;;;15.35;;
19593;SDS011;9944;48.240;16.478;2022-10-15T01:22:23;20.42;;;12.32;;
19593;SDS011;9944;48.240;16.478;2022-10-15T01:26:47;23.88;;;13.13;;
19593;SDS011;9944;48.240;16.478;2022-10-15T01:31:13;27.75;;;14.55;;
19593;SDS011;9944;48.240;16.478;2022-10-15T01:35:27;26.30;;;14.20;;
19593;SDS011;9944;48.240;16.478;2022-10-15T01:39:40;23.48;;;13.77;;
19593;SDS011;9944;48.240;16.478;2022-10-15T01:43:49;22.20;;;13.38;;
19593;SDS011;9944;48.240;16.478;2022-10-15T01:48:29;24.02;;;13.73;;
19593;SDS011;9944;48.240;16.478;2022-10-15T01:52:35;22.98;;;13.07;;
19593;SDS011;9944;48.240;16.478;2022-10-15T01:56:42;22.90;;;13.00;;
19593;SDS011;9944;48.240;16.478;2022-10-15T02:00:53;26.00;;;14.70;;
19593;SDS011;9944;48.240;16.478;2022-10-15T02:05:01;22.83;;;13.07;;
19593;SDS011;9944;48.240;16.478;2022-10-15T02:09:09;23.60;;;13.50;;
19593;SDS011;9944;48.240;16.478;2022-10-15T02:13:19;27.35;;;15.05;;
19593;SDS011;9944;48.240;16.478;2022-10-15T02:17:28;28.45;;;15.15;;
19593;SDS011;9944;48.240;16.478;2022-10-15T02:21:40;26.63;;;14.52;;
19593;SDS011;9944;48.240;16.478;2022-10-15T02:25:48;26.75;;;14.98;;
19593;SDS011;9944;48.240;16.478;2022-10-15T02:29:54;25.38;;;14.77;;
19593;SDS011;9944;48.240;16.478;2022-10-15T02:34:00;31.70;;;16.25;;
19593;SDS011;9944;48.240;16.478;2022-10-15T02:38:12;28.08;;;14.65;;
19593;SDS011;9944;48.240;16.478;2022-10-15T02:42:18;26.75;;;13.70;;
19593;SDS011;9944;48.240;16.478;2022-10-15T02:46:22;29.88;;;15.88;;
19593;SDS011;9944;48.240;16.478;2022-10-15T02:50:26;27.95;;;16.08;;
19593;SDS011;9944;48.240;16.478;2022-10-15T02:54:30;27.70;;;15.98;;
19593;SDS011;9944;48.240;16.478;2022-10-15T02:58:34;24.40;;;14.75;;
19593;SDS011;9944;48.240;16.478;2022-10-15T03:02:40;26.52;;;14.77;;
19593;SDS011;9944;48.240;16.478;2022-10-15T03:06:43;26.52;;;15.68;;
19593;SDS011;9944;48.240;16.478;2022-10-15T03:10:49;28.55;;;15.63;;
19593;SDS011;9944;48.240;16.478;2022-10-15T03:14:52;27.67;;;15.13;;
19593;SDS011;9944;48.240;16.478;2022-10-15T03:18:56;25.20;;;13.70;;
19593;SDS011;9944;48.240;16.478;2022-10-15T03:22:59;27.65;;;15.60;;
19593;SDS011;9944;48.240;16.478;2022-10-15T03:27:05;30.02;;;15.77;;
19593;SDS011;9944;48.240;16.478;2022-10-15T03:31:09;29.73;;;16.95;;
19593;SDS011;9944;48.240;16.478;2022-10-15T03:35:14;33.35;;;15.93;;
19593;SDS011;9944;48.240;16.478;2022-10-15T03:39:17;25.45;;;14.70;;
19593;SDS011;9944;48.240;16.478;2022-10-15T03:43:23;27.13;;;15.30;;
19593;SDS011;9944;48.240;16.478;2022-10-15T03:47:27;25.92;;;14.98;;
19593;SDS011;9944;48.240;16.478;2022-10-15T03:51:31;27.98;;;16.38;;
19593;SDS011;9944;48.240;16.478;2022-10-15T03:55:39;26.55;;;14.77;;
19593;SDS011;9944;48.240;16.478;2022-10-15T03:59:44;25.90;;;14.90;;
19593;SDS011;9944;48.240;16.478;2022-10-15T04:03:50;30.88;;;16.42;;
19593;SDS011;9944;48.240;16.478;2022-10-15T04:07:56;25.48;;;15.07;;
19593;SDS011;9944;48.240;16.478;2022-10-15T04:12:01;30.38;;;15.60;;
19593;SDS011;9944;48.240;16.478;2022-10-15T04:16:06;26.73;;;13.80;;
19593;SDS011;9944;48.240;16.478;2022-10-15T04:20:09;25.92;;;15.07;;
19593;SDS011;9944;48.240;16.478;2022-10-15T04:24:16;24.45;;;14.57;;
19593;SDS011;9944;48.240;16.478;2022-10-15T04:28:20;26.08;;;15.40;;
19593;SDS011;9944;48.240;16.478;2022-10-15T04:32:24;24.98;;;15.20;;
19593;SDS011;9944;48.240;16.478;2022-10-15T04:36:29;26.17;;;14.63;;
19593;SDS011;9944;48.240;16.478;2022-10-15T04:40:38;26.70;;;15.60;;
19593;SDS011;9944;48.240;16.478;2022-10-15T04:44:41;25.73;;;14.43;;
19593;SDS011;9944;48.240;16.478;2022-10-15T04:48:47;23.50;;;14.48;;
19593;SDS011;9944;48.240;16.478;2022-10-15T04:52:51;26.23;;;14.95;;
19593;SDS011;9944;48.240;16.478;2022-10-15T04:56:56;28.25;;;15.45;;
19593;SDS011;9944;48.240;16.478;2022-10-15T05:01:00;24.00;;;15.18;;
19593;SDS011;9944;48.240;16.478;2022-10-15T05:05:10;32.83;;;16.60;;
19593;SDS011;9944;48.240;16.478;2022-10-15T05:09:22;27.58;;;15.38;;
19593;SDS011;9944;48.240;16.478;2022-10-15T05:13:26;27.40;;;15.18;;
19593;SDS011;9944;48.240;16.478;2022-10-15T05:17:30;27.05;;;15.40;;
19593;SDS011;9944;48.240;16.478;2022-10-15T05:21:35;27.65;;;14.88;;
19593;SDS011;9944;48.240;16.478;2022-10-15T05:25:46;25.50;;;14.10;;
19593;SDS011;9944;48.240;16.478;2022-10-15T05:29:57;26.52;;;15.25;;
19593;SDS011;9944;48.240;16.478;2022-10-15T05:34:12;27.30;;;14.63;;
19593;SDS011;9944;48.240;16.478;2022-10-15T05:38:26;25.00;;;14.60;;
19593;SDS011;9944;48.240;16.478;2022-10-15T05:42:29;27.00;;;14.50;;
19593;SDS011;9944;48.240;16.478;2022-10-15T05:46:35;24.25;;;14.30;;
19593;SDS011;9944;48.240;16.478;2022-10-15T05:50:38;25.40;;;13.48;;
19593;SDS011;9944;48.240;16.478;2022-10-15T05:54:46;22.52;;;13.38;;
19593;SDS011;9944;48.240;16.478;2022-10-15T05:58:49;29.25;;;16.13;;
19593;SDS011;9944;48.240;16.478;2022-10-15T06:02:55;28.45;;;15.55;;
19593;SDS011;9944;48.240;16.478;2022-10-15T06:06:59;24.77;;;14.25;;
19593;SDS011;9944;48.240;16.478;2022-10-15T06:11:03;24.08;;;14.65;;
19593;SDS011;9944;48.240;16.478;2022-10-15T06:15:09;26.15;;;14.98;;
19593;SDS011;9944;48.240;16.478;2022-10-15T06:19:13;24.98;;;14.85;;
19593;SDS011;9944;48.240;16.478;2022-10-15T06:23:16;26.88;;;14.98;;
19593;SDS011;9944;48.240;16.478;2022-10-15T06:27:21;27.77;;;15.55;;
19593;SDS011;9944;48.240;16.478;2022-10-15T06:31:24;25.40;;;15.15;;
19593;SDS011;9944;48.240;16.478;2022-10-15T06:35:27;27.35;;;15.68;;
19593;SDS011;9944;48.240;16.478;2022-10-15T06:39:34;26.45;;;15.40;;
19593;SDS011;9944;48.240;16.478;2022-10-15T06:43:38;28.42;;;16.15;;
19593;SDS011;9944;48.240;16.478;2022-10-15T06:47:42;25.60;;;14.95;;
19593;SDS011;9944;48.240;16.478;2022-10-15T06:51:46;25.60;;;15.80;;
19593;SDS011;9944;48.240;16.478;2022-10-15T06:55:49;29.52;;;16.45;;
19593;SDS011;9944;48.240;16.478;2022-10-15T06:59:53;29.20;;;16.02;;
19593;SDS011;9944;48.240;16.478;2022-10-15T07:03:56;26.17;;;16.02;;
19593;SDS011;9944;48.240;16.478;2022-10-15T07:08:00;24.80;;;15.23;;
19593;SDS011;9944;48.240;16.478;2022-10-15T07:12:03;29.27;;;16.90;;
19593;SDS011;9944;48.240;16.478;2022-10-15T07:16:09;25.60;;;14.95;;
19593;SDS011;9944;48.240;16.478;2022-10-15T07:20:13;26.33;;;15.02;;
19593;SDS011;9944;48.240;16.478;2022-10-15T07:24:23;28.77;;;16.08;;
19593;SDS011;9944;48.240;16.478;2022-10-15T07:28:26;25.52;;;15.38;;
19593;SDS011;9944;48.240;16.478;2022-10-15T07:32:31;26.50;;;15.55;;
19593;SDS011;9944;48.240;16.478;2022-10-15T07:36:34;26.85;;;16.10;;
19593;SDS011;9944;48.240;16.478;2022-10-15T07:40:37;28.63;;;15.80;;
19593;SDS011;9944;48.240;16.478;2022-10-15T07:44:40;28.30;;;16.13;;
19593;SDS011;9944;48.240;16.478;2022-10-15T07:48:45;27.05;;;16.30;;
19593;SDS011;9944;48.240;16.478;2022-10-15T07:52:48;28.38;;;17.05;;
19593;SDS011;9944;48.240;16.478;2022-10-15T07:56:51;27.85;;;15.93;;
19593;SDS011;9944;48.240;16.478;2022-10-15T08:00:55;28.55;;;15.95;;
19593;SDS011;9944;48.240;16.478;2022-10-15T08:05:03;23.83;;;14.57;;
19593;SDS011;9944;48.240;16.478;2022-10-15T08:09:06;24.00;;;15.13;;
19593;SDS011;9944;48.240;16.478;2022-10-15T08:13:10;24.98;;;15.35;;
19593;SDS011;9944;48.240;16.478;2022-10-15T08:17:13;25.88;;;15.25;;
19593;SDS011;9944;48.240;16.478;2022-10-15T08:21:18;27.33;;;15.00;;
19593;SDS011;9944;48.240;16.478;2022-10-15T08:25:21;24.65;;;14.20;;
19593;SDS011;9944;48.240;16.478;2022-10-15T08:29:24;23.40;;;14.27;;
19593;SDS011;9944;48.240;16.478;2022-10-15T08:33:27;24.17;;;14.75;;
19593;SDS011;9944;48.240;16.478;2022-10-15T08:37:31;25.35;;;14.55;;
19593;SDS011;9944;48.240;16.478;2022-10-15T08:41:35;24.73;;;15.27;;
19593;SDS011;9944;48.240;16.478;2022-10-15T08:45:42;26.13;;;14.75;;
19593;SDS011;9944;48.240;16.478;2022-10-15T08:49:49;26.08;;;15.23;;
19593;SDS011;9944;48.240;16.478;2022-10-15T08:53:59;23.38;;;14.48;;
19593;SDS011;9944;48.240;16.478;2022-10-15T08:58:05;24.70;;;14.95;;
19593;SDS011;9944;48.240;16.478;2022-10-15T09:02:18;25.77;;;14.35;;
19593;SDS011;9944;48.240;16.478;2022-10-15T09:06:29;25.50;;;14.45;;
19593;SDS011;9944;48.240;16.478;2022-10-15T09:10:40;24.20;;;14.63;;
19593;SDS011;9944;48.240;16.478;2022-10-15T09:14:49;25.63;;;14.95;;
19593;SDS011;9944;48.240;16.478;2022-10-15T09:18:57;23.33;;;14.48;;
19593;SDS011;9944;48.240;16.478;2022-10-15T09:23:07;26.05;;;15.25;;
19593;SDS011;9944;48.240;16.478;2022-10-15T09:27:22;23.75;;;13.95;;
19593;SDS011;9944;48.240;16.478;2022-10-15T09:31:33;22.85;;;14.20;;
19593;SDS011;9944;48.240;16.478;2022-10-15T09:35:44;22.15;;;13.88;;
19593;SDS011;9944;48.240;16.478;2022-10-15T09:39:55;21.60;;;13.77;;
19593;SDS011;9944;48.240;16.478;2022-10-15T09:44:12;24.75;;;13.90;;
19593;SDS011;9944;48.240;16.478;2022-10-15T09:48:20;23.85;;;14.35;;
19593;SDS011;9944;48.240;16.478;2022-10-15T09:52:28;24.60;;;14.05;;
19593;SDS011;9944;48.240;16.478;2022-10-15T09:56:47;22.27;;;13.57;;
19593;SDS011;9944;48.240;16.478;2022-10-15T10:00:59;22.30;;;13.77;;
19593;SDS011;9944;48.240;16.478;2022-10-15T10:05:18;23.77;;;13.27;;
19593;SDS011;9944;48.240;16.478;2022-10-15T10:09:29;22.15;;;14.32;;
19593;SDS011;9944;48.240;16.478;2022-10-15T10:13:37;23.80;;;13.70;;
19593;SDS011;9944;48.240;16.478;2022-10-15T10:17:46;22.52;;;12.93;;
19593;SDS011;9944;48.240;16.478;2022-10-15T10:21:53;23.42;;;13.77;;
19593;SDS011;9944;48.240;16.478;2022-10-15T10:26:08;21.95;;;13.55;;
19593;SDS011;9944;48.240;16.478;2022-10-15T10:30:13;20.35;;;12.68;;
19593;SDS011;9944;48.240;16.478;2022-10-15T10:34:20;18.42;;;12.30;;
19593;SDS011;9944;48.240;16.478;2022-10-15T10:38:30;21.63;;;12.80;;
19593;SDS011;9944;48.240;16.478;2022-10-15T10:42:35;22.52;;;12.75;;
19593;SDS011;9944;48.240;16.478;2022-10-15T10:46:41;20.42;;;13.02;;
19593;SDS011;9944;48.240;16.478;2022-10-15T10:50:45;20.50;;;12.68;;
19593;SDS011;9944;48.240;16.478;2022-10-15T10:54:51;19.02;;;12.30;;
19593;SDS011;9944;48.240;16.478;2022-10-15T10:59:01;20.92;;;12.70;;
19593;SDS011;9944;48.240;16.478;2022-10-15T11:03:15;19.77;;;12.73;;
19593;SDS011;9944;48.240;16.478;2022-10-15T11:07:33;20.45;;;11.75;;
19593;SDS011;9944;48.240;16.478;2022-10-15T11:11:45;19.15;;;12.40;;
19593;SDS011;9944;48.240;16.478;2022-10-15T11:15:58;22.17;;;13.25;;
19593;SDS011;9944;48.240;16.478;2022-10-15T11:20:05;22.50;;;13.00;;
19593;SDS011;9944;48.240;16.478;2022-10-15T11:24:41;20.95;;;12.85;;
19593;SDS011;9944;48.240;16.478;2022-10-15T11:29:09;20.73;;;12.63;;
19593;SDS011;9944;48.240;16.478;2022-10-15T11:33:20;21.90;;;13.00;;
19593;SDS011;9944;48.240;16.478;2022-10-15T11:37:40;19.48;;;12.35;;
19593;SDS011;9944;48.240;16.478;2022-10-15T11:41:54;24.08;;;11.90;;
19593;SDS011;9944;48.240;16.478;2022-10-15T11:46:08;20.95;;;11.88;;
19593;SDS011;9944;48.240;16.478;2022-10-15T11:50:24;20.85;;;11.98;;
19593;SDS011;9944;48.240;16.478;2022-10-15T11:54:31;19.25;;;12.35;;
19593;SDS011;9944;48.240;16.478;2022-10-15T11:58:43;18.95;;;11.20;;
19593;SDS011;9944;48.240;16.478;2022-10-15T12:02:50;17.00;;;11.27;;
19593;SDS011;9944;48.240;16.478;2022-10-15T12:06:57;16.83;;;10.90;;
19593;SDS011;9944;48.240;16.478;2022-10-15T12:11:05;15.20;;;10.15;;
19593;SDS011;9944;48.240;16.478;2022-10-15T12:15:23;14.93;;;9.40;;
19593;SDS011;9944;48.240;16.478;2022-10-15T12:19:34;19.17;;;10.95;;
19593;SDS011;9944;48.240;16.478;2022-10-15T12:23:42;19.15;;;11.48;;
19593;SDS011;9944;48.240;16.478;2022-10-15T12:27:45;17.20;;;11.23;;
19593;SDS011;9944;48.240;16.478;2022-10-15T12:32:02;17.80;;;11.50;;
19593;SDS011;9944;48.240;16.478;2022-10-15T12:36:06;16.55;;;10.77;;
19593;SDS011;9944;48.240;16.478;2022-10-15T12:40:24;19.20;;;11.23;;
19593;SDS011;9944;48.240;16.478;2022-10-15T12:44:30;18.52;;;11.98;;
19593;SDS011;9944;48.240;16.478;2022-10-15T12:48:37;21.30;;;12.55;;
19593;SDS011;9944;48.240;16.478;2022-10-15T12:52:53;19.80;;;12.05;;
19593;SDS011;9944;48.240;16.478;2022-10-15T12:57:01;19.42;;;12.20;;
19593;SDS011;9944;48.240;16.478;2022-10-15T13:01:26;19.48;;;12.77;;
19593;SDS011;9944;48.240;16.478;2022-10-15T13:05:34;21.70;;;12.70;;
19593;SDS011;9944;48.240;16.478;2022-10-15T13:09:38;22.77;;;13.38;;
19593;SDS011;9944;48.240;16.478;2022-10-15T13:13:46;19.02;;;12.90;;
19593;SDS011;9944;48.240;16.478;2022-10-15T13:17:52;18.48;;;12.00;;
19593;SDS011;9944;48.240;16.478;2022-10-15T13:21:58;16.88;;;11.15;;
19593;SDS011;9944;48.240;16.478;2022-10-15T13:26:10;18.45;;;12.35;;
19593;SDS011;9944;48.240;16.478;2022-10-15T13:30:26;19.77;;;11.77;;
19593;SDS011;9944;48.240;16.478;2022-10-15T13:34:29;18.95;;;11.75;;
19593;SDS011;9944;48.240;16.478;2022-10-15T13:38:37;18.58;;;11.18;;
19593;SDS011;9944;48.240;16.478;2022-10-15T13:42:56;21.30;;;12.13;;
19593;SDS011;9944;48.240;16.478;2022-10-15T13:47:00;19.10;;;12.27;;
19593;SDS011;9944;48.240;16.478;2022-10-15T13:51:04;18.48;;;12.52;;
19593;SDS011;9944;48.240;16.478;2022-10-15T13:55:20;18.40;;;11.93;;
19593;SDS011;9944;48.240;16.478;2022-10-15T13:59:25;21.13;;;13.50;;
19593;SDS011;9944;48.240;16.478;2022-10-15T14:03:31;21.25;;;13.25;;
19593;SDS011;9944;48.240;16.478;2022-10-15T14:07:36;20.55;;;12.70;;
19593;SDS011;9944;48.240;16.478;2022-10-15T14:11:41;19.75;;;11.52;;
19593;SDS011;9944;48.240;16.478;2022-10-15T14:15:51;20.58;;;12.38;;
19593;SDS011;9944;48.240;16.478;2022-10-15T14:19:59;20.58;;;12.13;;
19593;SDS011;9944;48.240;16.478;2022-10-15T14:24:29;20.30;;;11.98;;
19593;SDS011;9944;48.240;16.478;2022-10-15T14:28:37;19.20;;;11.77;;
19593;SDS011;9944;48.240;16.478;2022-10-15T14:32:43;20.17;;;12.05;;
19593;SDS011;9944;48.240;16.478;2022-10-15T14:36:48;19.08;;;12.57;;
19593;SDS011;9944;48.240;16.478;2022-10-15T14:40:57;21.15;;;12.77;;
19593;SDS011;9944;48.240;16.478;2022-10-15T14:45:13;19.35;;;13.43;;
19593;SDS011;9944;48.240;16.478;2022-10-15T14:49:23;19.23;;;13.23;;
19593;SDS011;9944;48.240;16.478;2022-10-15T14:53:30;20.20;;;14.00;;
19593;SDS011;9944;48.240;16.478;2022-10-15T14:57:38;21.85;;;13.88;;
19593;SDS011;9944;48.240;16.478;2022-10-15T15:01:51;22.42;;;14.30;;
19593;SDS011;9944;48.240;16.478;2022-10-15T15:06:00;21.85;;;13.82;;
19593;SDS011;9944;48.240;16.478;2022-10-15T15:10:04;22.13;;;13.27;;
19593;SDS011;9944;48.240;16.478;2022-10-15T15:14:16;23.40;;;14.43;;
19593;SDS011;9944;48.240;16.478;2022-10-15T15:18:25;19.50;;;13.27;;
19593;SDS011;9944;48.240;16.478;2022-10-15T15:22:29;21.85;;;13.73;;
19593;SDS011;9944;48.240;16.478;2022-10-15T15:26:34;23.33;;;14.48;;
19593;SDS011;9944;48.240;16.478;2022-10-15T15:30:38;24.95;;;15.07;;
19593;SDS011;9944;48.240;16.478;2022-10-15T15:34:44;22.77;;;14.40;;
19593;SDS011;9944;48.240;16.478;2022-10-15T15:38:47;22.15;;;14.73;;
19593;SDS011;9944;48.240;16.478;2022-10-15T15:42:50;21.35;;;14.05;;
19593;SDS011;9944;48.240;16.478;2022-10-15T15:46:53;24.08;;;14.95;;
19593;SDS011;9944;48.240;16.478;2022-10-15T15:50:58;21.95;;;14.40;;
19593;SDS011;9944;48.240;16.478;2022-10-15T15:55:05;23.60;;;15.05;;
19593;SDS011;9944;48.240;16.478;2022-10-15T15:59:09;25.38;;;15.88;;
19593;SDS011;9944;48.240;16.478;2022-10-15T16:03:12;23.42;;;14.90;;
19593;SDS011;9944;48.240;16.478;2022-10-15T16:07:17;24.90;;;15.55;;
19593;SDS011;9944;48.240;16.478;2022-10-15T16:11:20;23.55;;;15.27;;
19593;SDS011;9944;48.240;16.478;2022-10-15T16:15:23;25.00;;;15.68;;
19593;SDS011;9944;48.240;16.478;2022-10-15T16:19:26;25.80;;;15.93;;
19593;SDS011;9944;48.240;16.478;2022-10-15T16:23:30;25.60;;;15.88;;
19593;SDS011;9944;48.240;16.478;2022-10-15T16:27:33;24.55;;;14.70;;
19593;SDS011;9944;48.240;16.478;2022-10-15T16:31:37;23.42;;;14.27;;
19593;SDS011;9944;48.240;16.478;2022-10-15T16:35:40;19.65;;;13.23;;
19593;SDS011;9944;48.240;16.478;2022-10-15T16:39:44;23.38;;;13.93;;
19593;SDS011;9944;48.240;16.478;2022-10-15T16:43:47;20.58;;;13.80;;
19593;SDS011;9944;48.240;16.478;2022-10-15T16:47:51;18.90;;;12.90;;
19593;SDS011;9944;48.240;16.478;2022-10-15T16:51:54;19.67;;;13.88;;
19593;SDS011;9944;48.240;16.478;2022-10-15T16:55:59;19.33;;;12.43;;
19593;SDS011;9944;48.240;16.478;2022-10-15T17:00:03;19.42;;;13.38;;
19593;SDS011;9944;48.240;16.478;2022-10-15T17:04:07;20.77;;;12.93;;
19593;SDS011;9944;48.240;16.478;2022-10-15T17:08:10;19.65;;;13.10;;
19593;SDS011;9944;48.240;16.478;2022-10-15T17:12:16;21.05;;;14.10;;
19593;SDS011;9944;48.240;16.478;2022-10-15T17:16:21;17.23;;;11.90;;
19593;SDS011;9944;48.240;16.478;2022-10-15T17:20:25;17.52;;;11.50;;
19593;SDS011;9944;48.240;16.478;2022-10-15T17:24:29;19.35;;;12.18;;
19593;SDS011;9944;48.240;16.478;2022-10-15T17:28:33;20.15;;;12.43;;
19593;SDS011;9944;48.240;16.478;2022-10-15T17:32:37;16.45;;;11.77;;
19593;SDS011;9944;48.240;16.478;2022-10-15T17:36:41;15.82;;;11.27;;
19593;SDS011;9944;48.240;16.478;2022-10-15T17:41:05;17.08;;;10.95;;
19593;SDS011;9944;48.240;16.478;2022-10-15T17:45:12;17.40;;;11.65;;
19593;SDS011;9944;48.240;16.478;2022-10-15T17:49:15;17.10;;;11.73;;
19593;SDS011;9944;48.240;16.478;2022-10-15T17:53:19;17.00;;;11.93;;
19593;SDS011;9944;48.240;16.478;2022-10-15T17:57:22;16.77;;;11.52;;
19593;SDS011;9944;48.240;16.478;2022-10-15T18:01:28;17.02;;;11.35;;
19593;SDS011;9944;48.240;16.478;2022-10-15T18:05:52;18.27;;;11.77;;
19593;SDS011;9944;48.240;16.478;2022-10-15T18:09:55;16.17;;;10.88;;
19593;SDS011;9944;48.240;16.478;2022-10-15T18:13:58;14.88;;;10.73;;
19593;SDS011;9944;48.240;16.478;2022-10-15T18:18:02;15.75;;;10.68;;
19593;SDS011;9944;48.240;16.478;2022-10-15T18:22:05;17.60;;;11.55;;
19593;SDS011;9944;48.240;16.478;2022-10-15T18:26:09;16.88;;;10.95;;
19593;SDS011;9944;48.240;16.478;2022-10-15T18:30:20;16.83;;;10.95;;
19593;SDS011;9944;48.240;16.478;2022-10-15T18:34:24;15.55;;;10.77;;
19593;SDS011;9944;48.240;16.478;2022-10-15T18:38:28;16.13;;;10.38;;
19593;SDS011;9944;48.240;16.478;2022-10-15T18:42:31;14.95;;;10.20;;
19593;SDS011;9944;48.240;16.478;2022-10-15T18:46:37;17.58;;;11.02;;
19593;SDS011;9944;48.240;16.478;2022-10-15T18:50:44;17.00;;;10.90;;
19593;SDS011;9944;48.240;16.478;2022-10-15T18:54:52;16.02;;;10.95;;
19593;SDS011;9944;48.240;16.478;2022-10-15T18:58:55;15.57;;;10.95;;
19593;SDS011;9944;48.240;16.478;2022-10-15T19:02:58;18.08;;;11.50;;
19593;SDS011;9944;48.240;16.478;2022-10-15T19:07:03;16.55;;;10.52;;
19593;SDS011;9944;48.240;16.478;2022-10-15T19:11:06;15.07;;;10.90;;
19593;SDS011;9944;48.240;16.478;2022-10-15T19:15:09;17.90;;;11.48;;
19593;SDS011;9944;48.240;16.478;2022-10-15T19:19:14;18.92;;;12.32;;
19593;SDS011;9944;48.240;16.478;2022-10-15T19:23:22;15.55;;;11.77;;
19593;SDS011;9944;48.240;16.478;2022-10-15T19:27:25;15.88;;;10.57;;
19593;SDS011;9944;48.240;16.478;2022-10-15T19:31:29;17.52;;;11.65;;
19593;SDS011;9944;48.240;16.478;2022-10-15T19:35:38;16.27;;;11.32;;
19593;SDS011;9944;48.240;16.478;2022-10-15T19:39:43;17.80;;;11.43;;
19593;SDS011;9944;48.240;16.478;2022-10-15T19:43:48;17.83;;;11.65;;
19593;SDS011;9944;48.240;16.478;2022-10-15T19:47:51;19.42;;;11.02;;
19593;SDS011;9944;48.240;16.478;2022-10-15T19:51:58;16.30;;;10.85;;
19593;SDS011;9944;48.240;16.478;2022-10-15T19:56:03;19.73;;;11.75;;
19593;SDS011;9944;48.240;16.478;2022-10-15T20:00:09;21.05;;;12.18;;
19593;SDS011;9944;48.240;16.478;2022-10-15T20:04:13;20.83;;;11.93;;
19593;SDS011;9944;48.240;16.478;2022-10-15T20:08:16;16.80;;;10.98;;
19593;SDS011;9944;48.240;16.478;2022-10-15T20:12:21;16.25;;;10.70;;
19593;SDS011;9944;48.240;16.478;2022-10-15T20:16:24;15.57;;;11.10;;
19593;SDS011;9944;48.240;16.478;2022-10-15T20:20:33;18.52;;;11.77;;
19593;SDS011;9944;48.240;16.478;2022-10-15T20:24:36;16.13;;;10.88;;
19593;SDS011;9944;48.240;16.478;2022-10-15T20:28:41;18.33;;;11.40;;
19593;SDS011;9944;48.240;16.478;2022-10-15T20:32:46;16.52;;;10.95;;
19593;SDS011;9944;48.240;16.478;2022-10-15T20:36:50;18.30;;;12.13;;
19593;SDS011;9944;48.240;16.478;2022-10-15T20:40:53;15.45;;;10.40;;
19593;SDS011;9944;48.240;16.478;2022-10-15T20:44:57;18.45;;;11.82;;
19593;SDS011;9944;48.240;16.478;2022-10-15T20:49:01;18.52;;;11.82;;
19593;SDS011;9944;48.240;16.478;2022-10-15T20:53:10;16.25;;;11.20;;
19593;SDS011;9944;48.240;16.478;2022-10-15T20:57:13;17.95;;;11.48;;
19593;SDS011;9944;48.240;16.478;2022-10-15T21:01:18;18.45;;;11.55;;
19593;SDS011;9944;48.240;16.478;2022-10-15T21:05:21;22.52;;;12.80;;
19593;SDS011;9944;48.240;16.478;2022-10-15T21:09:24;18.63;;;11.85;;
19593;SDS011;9944;48.240;16.478;2022-10-15T21:13:27;18.25;;;12.15;;
19593;SDS011;9944;48.240;16.478;2022-10-15T21:17:32;20.10;;;12.70;;
19593;SDS011;9944;48.240;16.478;2022-10-15T21:21:35;18.15;;;11.80;;
19593;SDS011;9944;48.240;16.478;2022-10-15T21:25:39;16.70;;;10.63;;
19593;SDS011;9944;48.240;16.478;2022-10-15T21:29:42;16.50;;;11.60;;
19593;SDS011;9944;48.240;16.478;2022-10-15T21:33:48;17.58;;;11.43;;
19593;SDS011;9944;48.240;16.478;2022-10-15T21:37:52;19.05;;;11.93;;
19593;SDS011;9944;48.240;16.478;2022-10-15T21:41:55;18.63;;;12.15;;
19593;SDS011;9944;48.240;16.478;2022-10-15T21:46:02;18.48;;;11.60;;
19593;SDS011;9944;48.240;16.478;2022-10-15T21:50:07;20.65;;;12.20;;
19593;SDS011;9944;48.240;16.478;2022-10-15T21:54:11;18.88;;;11.70;;
19593;SDS011;9944;48.240;16.478;2022-10-15T21:58:14;18.90;;;11.98;;
19593;SDS011;9944;48.240;16.478;2022-10-15T22:02:18;18.27;;;12.40;;
19593;SDS011;9944;48.240;16.478;2022-10-15T22:06:22;20.40;;;12.23;;
19593;SDS011;9944;48.240;16.478;2022-10-15T22:10:25;20.10;;;12.82;;
19593;SDS011;9944;48.240;16.478;2022-10-15T22:14:28;18.17;;;11.25;;
19593;SDS011;9944;48.240;16.478;2022-10-15T22:18:31;18.80;;;12.68;;
19593;SDS011;9944;48.240;16.478;2022-10-15T22:22:36;16.98;;;11.68;;
19593;SDS011;9944;48.240;16.478;2022-10-15T22:26:40;20.58;;;12.82;;
19593;SDS011;9944;48.240;16.478;2022-10-15T22:30:44;18.98;;;11.50;;
19593;SDS011;9944;48.240;16.478;2022-10-15T22:34:47;18.90;;;11.77;;
19593;SDS011;9944;48.240;16.478;2022-10-15T22:38:52;18.77;;;12.60;;
19593;SDS011;9944;48.240;16.478;2022-10-15T22:42:57;19.25;;;12.52;;
19593;SDS011;9944;48.240;16.478;2022-10-15T22:47:00;17.88;;;12.57;;
19593;SDS011;9944;48.240;16.478;2022-10-15T22:51:05;18.33;;;12.10;;
19593;SDS011;9944;48.240;16.478;2022-10-15T22:55:10;17.50;;;12.05;;
19593;SDS011;9944;48.240;16.478;2022-10-15T22:59:13;17.27;;;11.85;;
19593;SDS011;9944;48.240;16.478;2022-10-15T23:03:17;18.38;;;12.90;;
19593;SDS011;9944;48.240;16.478;2022-10-15T23:07:21;19.95;;;12.93;;
19593;SDS011;9944;48.240;16.478;2022-10-15T23:11:27;18.95;;;11.98;;
19593;SDS011;9944;48.240;16.478;2022-10-15T23:15:32;18.83;;;12.63;;
19593;SDS011;9944;48.240;16.478;2022-10-15T23:19:35;18.50;;;11.75;;
19593;SDS011;9944;48.240;16.478;2022-10-15T23:23:38;18.88;;;12.80;;
19593;SDS011;9944;48.240;16.478;2022-10-15T23:27:43;19.58;;;12.13;;
19593;SDS011;9944;48.240;16.478;2022-10-15T23:31:46;18.25;;;11.95;;
19593;SDS011;9944;48.240;16.478;2022-10-15T23:35:58;17.17;;;11.27;;
19593;SDS011;9944;48.240;16.478;2022-10-15T23:40:02;18.02;;;12.48;;
19593;SDS011;9944;48.240;16.478;2022-10-15T23:44:07;20.75;;;12.70;;
19593;SDS011;9944;48.240;16.478;2022-10-15T23:48:10;17.30;;;10.90;;
19593;SDS011;9944;48.240;16.478;2022-10-15T23:52:13;14.90;;;9.85;;
19593;SDS011;9944;48.240;16.478;2022-10-15T23:56:16;14.73;;;10.25;;
